Time;durP1;ratioP1;P1;durP2;ratioP2;P2;SDS_P1;SDS_P2;PMS_P1;PMS_P2;Temp;Humidity;BMP_temperature;BMP_pressure;BME280_temperature;BME280_humidity;BME280_pressure;Samples;Min_cycle;Max_cycle;Signal;HPM_P1;HPM_P2
2021/05/12 00:07:27;;;;;;;9.9;6;;;;;;;12.45;93.45996;97763.35;;;;
2021/05/12 00:17:28;;;;;;;10.8;7.9;;;;;;;12.23;92.71582;97769.99;;;;
2021/05/12 00:27:24;;;;;;;9;6.1;;;;;;;12.1;95.2666;97760.31;;;;
2021/05/12 00:37:23;;;;;;;9.9;6.2;;;;;;;12.09;94.52148;97766.83;;;;
2021/05/12 00:47:21;;;;;;;11.4;7;;;;;;;11.96;95.51758;97765.25;;;;
2021/05/12 00:57:20;;;;;;;17.1;7.5;;;;;;;11.92;97.59082;97762.44;;;;
2021/05/12 01:07:18;;;;;;;10.1;6.2;;;;;;;12.01;98.72461;97765.02;;;;
2021/05/12 01:17:17;;;;;;;13.4;6.3;;;;;;;11.74;96.26758;97752.16;;;;
2021/05/12 01:27:16;;;;;;;10.1;5.2;;;;;;;11.69;99.92188;97758.55;;;;
2021/05/12 01:37:14;;;;;;;11.2;5.2;;;;;;;11.61;99.38672;97745.93;;;;
2021/05/12 01:47:13;;;;;;;7.7;4.6;;;;;;;11.63;100;97737.52;;;;
2021/05/12 01:57:11;;;;;;;8.8;5.4;;;;;;;11.54;100;97732.2;;;;
2021/05/12 02:07:10;;;;;;;6.3;4.8;;;;;;;11.22;100;97738.39;;;;
2021/05/12 02:17:08;;;;;;;11.1;6.4;;;;;;;11.11;100;97748.8;;;;
2021/05/12 02:27:07;;;;;;;16.9;7.5;;;;;;;11.09;100;97741.05;;;;
2021/05/12 02:37:05;;;;;;;16.8;6.8;;;;;;;11.23;100;97713;;;;
2021/05/12 02:47:04;;;;;;;11.7;7.1;;;;;;;11.02;100;97713.83;;;;
2021/05/12 02:57:03;;;;;;;9.2;5.9;;;;;;;10.8;100;97713.38;;;;
2021/05/12 03:07:01;;;;;;;7.9;5.6;;;;;;;10.55;100;97705.17;;;;
2021/05/12 03:16:59;;;;;;;7.8;5.3;;;;;;;10.42;100;97702.73;;;;
2021/05/12 03:26:58;;;;;;;15.5;6.3;;;;;;;10.42;100;97702.73;;;;
2021/05/12 03:36:56;;;;;;;9.3;6.2;;;;;;;10.47;100;97703.34;;;;
2021/05/12 03:46:55;;;;;;;9.9;5.7;;;;;;;10.53;100;97698.55;;;;
2021/05/12 03:56:53;;;;;;;11.3;6.3;;;;;;;10.68;100;97706.05;;;;
2021/05/12 04:06:52;;;;;;;9.6;6.4;;;;;;;10.8;100;97699.91;;;;
2021/05/12 04:16:52;;;;;;;8.9;6.7;;;;;;;11.11;100;97700.25;;;;
2021/05/12 04:26:49;;;;;;;11;7.8;;;;;;;11.56;100;97692.16;;;;
2021/05/12 04:36:47;;;;;;;8.2;6.6;;;;;;;12.17;100;97692.22;;;;
2021/05/12 04:46:47;;;;;;;15.3;6.8;;;;;;;12.74;100;97698.17;;;;
2021/05/12 04:56:45;;;;;;;20.5;7.4;;;;;;;13.23;100;97687.19;;;;
2021/05/12 05:06:44;;;;;;;13.7;6.7;;;;;;;13.79;100;97685.94;;;;
2021/05/12 05:16:42;;;;;;;13.9;7.6;;;;;;;14.19;100;97688.44;;;;
2021/05/12 05:26:41;;;;;;;8.8;6.5;;;;;;;14.66;100;97684.83;;;;
2021/05/12 05:36:40;;;;;;;11.7;6.9;;;;;;;15.04;99.26758;97687.55;;;;
2021/05/12 05:46:39;;;;;;;11.9;6;;;;;;;15.55;98.03418;97675.34;;;;
2021/05/12 05:56:38;;;;;;;11.5;6.3;;;;;;;16.09;96.71094;97680.52;;;;
2021/05/12 06:06:38;;;;;;;10.7;6.2;;;;;;;16.54;94.7832;97676.89;;;;
2021/05/12 06:16:37;;;;;;;9.9;5.1;;;;;;;17.12;92.94727;97681.89;;;;
2021/05/12 06:26:38;;;;;;;12.6;7;;;;;;;17.48;90.35352;97681.13;;;;
2021/05/12 06:36:35;;;;;;;11.4;6.8;;;;;;;18.03;89.70898;97675.78;;;;
2021/05/12 06:46:35;;;;;;;11.4;5.9;;;;;;;18.31;87.20117;97669.75;;;;
2021/05/12 06:56:34;;;;;;;9.7;5.6;;;;;;;18.74;85.6123;97662.62;;;;
2021/05/12 07:06:34;;;;;;;12.5;5.9;;;;;;;19.17;84.12109;97653.39;;;;
2021/05/12 07:16:33;;;;;;;13.8;5.4;;;;;;;19.54;83.87012;97645.69;;;;
2021/05/12 07:26:33;;;;;;;10.5;6.6;;;;;;;19.95;81.4043;97640.64;;;;
2021/05/12 07:36:32;;;;;;;13;7.9;;;;;;;20.08;81.49609;97641.01;;;;
2021/05/12 07:46:32;;;;;;;8.8;5.5;;;;;;;20.34;80.24316;97632.38;;;;
2021/05/12 07:56:32;;;;;;;7.1;4.3;;;;;;;20.9;77.38672;97639.63;;;;
2021/05/12 08:06:32;;;;;;;7.8;4.7;;;;;;;21.43;76.66992;97625.67;;;;
2021/05/12 08:16:32;;;;;;;12.3;4.8;;;;;;;21.7;73.86523;97614.09;;;;
2021/05/12 08:26:32;;;;;;;8.5;4.5;;;;;;;22.05;73.88965;97606.38;;;;
2021/05/12 08:36:32;;;;;;;8;4.7;;;;;;;22.49;74.29785;97604.77;;;;
2021/05/12 08:46:32;;;;;;;10.3;4.2;;;;;;;22.74;73.43359;97605.25;;;;
2021/05/12 08:56:32;;;;;;;8.4;3.9;;;;;;;23.27;71.26367;97576.27;;;;
2021/05/12 09:06:32;;;;;;;10.1;5;;;;;;;23.69;71.75977;97574.86;;;;
2021/05/12 09:16:32;;;;;;;11.1;4;;;;;;;24.01;70.66016;97553.85;;;;
2021/05/12 09:26:32;;;;;;;7.8;4.2;;;;;;;24.26;68.42285;97553.39;;;;
2021/05/12 09:36:32;;;;;;;7;3.8;;;;;;;24.42;62.62793;97541.69;;;;
2021/05/12 09:46:32;;;;;;;6.5;2.7;;;;;;;24.99;62.52148;97535.78;;;;
2021/05/12 09:56:52;;;;;;;6.4;3.7;;;;;;;25.23;57.14941;97530.9;;;;
2021/05/12 10:06:33;;;;;;;5.3;3.7;;;;;;;25.26;52.4082;97530.03;;;;
2021/05/12 10:16:33;;;;;;;7.6;2.3;;;;;;;25.51;54.16699;97525.48;;;;
2021/05/12 10:26:34;;;;;;;6.8;2.6;;;;;;;25.83;51.91113;97521.91;;;;
2021/05/12 10:36:34;;;;;;;5.2;1.9;;;;;;;25.55;49.64258;97522.63;;;;
2021/05/12 10:46:35;;;;;;;4.4;2.4;;;;;;;25.8;41.66699;97506.22;;;;
2021/05/12 10:56:35;;;;;;;8.9;3;;;;;;;25.79;40.01172;97493.63;;;;
2021/05/12 11:06:36;;;;;;;4.4;2;;;;;;;25.9;40.81348;97493.34;;;;
2021/05/12 11:16:36;;;;;;;4.8;2.4;;;;;;;26.22;39.95605;97486.97;;;;
2021/05/12 11:26:48;;;;;;;4.3;2.3;;;;;;;26.26;39.87695;97480.14;;;;
2021/05/12 11:36:40;;;;;;;6.6;3.6;;;;;;;26.49;38.92773;97459.73;;;;
2021/05/12 11:46:38;;;;;;;4.6;2.4;;;;;;;26.42;39.22852;97449.66;;;;
2021/05/12 11:56:39;;;;;;;8;3.3;;;;;;;26.77;40.40723;97435.98;;;;
2021/05/12 12:06:39;;;;;;;4.9;2;;;;;;;26.88;40.16895;97426.17;;;;
2021/05/12 12:16:40;;;;;;;5.8;2.5;;;;;;;27.13;40.85254;97405.23;;;;
2021/05/12 12:26:42;;;;;;;7.9;2.8;;;;;;;27.29;39.9082;97392.01;;;;
2021/05/12 12:36:41;;;;;;;7.6;2.7;;;;;;;27.44;40.86914;97381.23;;;;
2021/05/12 12:46:42;;;;;;;4.8;2;;;;;;;27.55;39.05371;97372.59;;;;
2021/05/12 12:56:43;;;;;;;4.8;2;;;;;;;27.64;39.71484;97367.88;;;;
2021/05/12 13:06:44;;;;;;;9;2.5;;;;;;;28.22;41.5459;97359.06;;;;
2021/05/12 13:16:44;;;;;;;6;2;;;;;;;28.47;40.3457;97353.3;;;;
2021/05/12 13:26:45;;;;;;;6.8;2.7;;;;;;;27.44;40.08789;97346.06;;;;
2021/05/12 13:36:48;;;;;;;5.3;2.3;;;;;;;27.46;41.38086;97328.99;;;;
2021/05/12 13:46:47;;;;;;;8.3;3;;;;;;;27.82;41.67578;97307.09;;;;
2021/05/12 13:56:52;;;;;;;2.8;1.1;;;;;;;27.96;33.31641;97291.94;;;;
2021/05/12 14:06:48;;;;;;;5.3;2.1;;;;;;;28.72;33.3252;97283.79;;;;
2021/05/12 14:17:02;;;;;;;5.3;3.2;;;;;;;28.25;38.41406;97275.8;;;;
2021/05/12 14:26:50;;;;;;;11.9;3.1;;;;;;;27.77;38.13574;97271.67;;;;
2021/05/12 14:36:50;;;;;;;5.6;2;;;;;;;27.58;39.15137;97272.03;;;;
2021/05/12 14:46:51;;;;;;;5.8;2.2;;;;;;;28.1;38.41309;97265.72;;;;
2021/05/12 14:56:55;;;;;;;7.4;2;;;;;;;27.6;38.77344;97250.2;;;;
2021/05/12 15:06:53;;;;;;;8;3;;;;;;;28.37;37.5459;97244.41;;;;
2021/05/12 15:16:53;;;;;;;6.8;2.6;;;;;;;29.24;35.91406;97243.89;;;;
2021/05/12 15:26:54;;;;;;;6.1;2;;;;;;;29.4;35.72363;97228.93;;;;
2021/05/12 15:36:56;;;;;;;7.3;2.2;;;;;;;29.36;35.10059;97250.55;;;;
2021/05/12 15:46:59;;;;;;;7.2;2.1;;;;;;;29.89;33.79395;97246.12;;;;
2021/05/12 15:56:59;;;;;;;7.2;3.2;;;;;;;30.03;33.85059;97241.12;;;;
2021/05/12 16:07:00;;;;;;;6.6;2.3;;;;;;;29.47;33.59473;97231.38;;;;
2021/05/12 16:17:03;;;;;;;4.8;1.9;;;;;;;26.86;36.09277;97221.24;;;;
2021/05/12 16:27:02;;;;;;;7.7;2.5;;;;;;;27.22;36.35938;97212.42;;;;
2021/05/12 16:37:03;;;;;;;6;1.8;;;;;;;28.99;32.60645;97217.23;;;;
2021/05/12 16:47:04;;;;;;;5.1;2.1;;;;;;;28.57;32.55176;97216.25;;;;
2021/05/12 16:57:05;;;;;;;5.7;1.6;;;;;;;27.69;34.42578;97217.81;;;;
2021/05/12 17:07:06;;;;;;;14.9;8.5;;;;;;;27.33;34.6709;97214.8;;;;
2021/05/12 17:17:07;;;;;;;44.1;31.5;;;;;;;25.57;38.32813;97204.89;;;;
2021/05/12 17:27:09;;;;;;;21.3;12;;;;;;;24.52;39.96973;97202.63;;;;
2021/05/12 17:37:08;;;;;;;36.7;21.9;;;;;;;23.85;40.89844;97192.45;;;;
2021/05/12 17:47:09;;;;;;;14;7;;;;;;;23.29;41.59766;97191.73;;;;
2021/05/12 17:57:09;;;;;;;9.9;3.6;;;;;;;22.85;42.47168;97191.03;;;;
2021/05/12 18:07:09;;;;;;;14.8;7.8;;;;;;;22.42;43.32129;97203.98;;;;
2021/05/12 18:17:17;;;;;;;9.9;7.3;;;;;;;22.1;45.20898;97204.5;;;;
2021/05/12 18:27:09;;;;;;;44.9;30.7;;;;;;;21.77;47.08984;97216.34;;;;
2021/05/12 18:37:15;;;;;;;16.3;14;;;;;;;21.47;47.32715;97217.94;;;;
2021/05/12 18:47:09;;;;;;;23.4;11.7;;;;;;;21.16;47.81836;97230.08;;;;
2021/05/12 18:57:09;;;;;;;10.5;5.4;;;;;;;20.95;48.48438;97246.73;;;;
2021/05/12 19:07:15;;;;;;;8.6;4.3;;;;;;;20.69;48.66504;97252.88;;;;
2021/05/12 19:17:09;;;;;;;9.6;4.9;;;;;;;20.31;49.93848;97252.8;;;;
2021/05/12 19:27:10;;;;;;;9.1;5.9;;;;;;;19.93;52.06738;97260.09;;;;
2021/05/12 19:39:58;;;;;;;10.5;5;;;;;;;19.81;52.37891;97274.25;;;;
2021/05/12 19:47:09;;;;;;;8.4;6;;;;;;;19.73;52.94922;97313.73;;;;
2021/05/12 20:07:11;;;;;;;21.1;5.2;;;;;;;19.56;63.22559;97337.23;;;;
2021/05/12 20:17:07;;;;;;;9.7;4.1;;;;;;;19.03;70.15527;97334.62;;;;
2021/05/12 20:27:06;;;;;;;9.1;4.7;;;;;;;18.51;76.44434;97349.08;;;;
2021/05/12 20:37:07;;;;;;;12.5;6.9;;;;;;;17.88;80.7627;97346.98;;;;
2021/05/12 20:47:05;;;;;;;6.9;3.9;;;;;;;17.21;88.12891;97342.03;;;;
2021/05/12 20:57:04;;;;;;;8.5;5;;;;;;;16.98;92.68945;97333.31;;;;
2021/05/12 21:07:03;;;;;;;7.8;4.4;;;;;;;16.62;98.15527;97339.69;;;;
2021/05/12 21:17:02;;;;;;;12.6;5.5;;;;;;;16.3;100;97337.45;;;;
2021/05/12 21:27:02;;;;;;;8.6;5.3;;;;;;;16.03;100;97325.16;;;;
2021/05/12 21:37:01;;;;;;;6.3;4.7;;;;;;;15.92;100;97325.05;;;;
2021/05/12 21:47:00;;;;;;;8;6.1;;;;;;;15.75;100;97319.42;;;;
2021/05/12 21:56:59;;;;;;;10.4;6.3;;;;;;;15.65;100;97326.3;;;;
2021/05/12 22:07:21;;;;;;;8.5;6;;;;;;;15.45;100;97325.63;;;;
2021/05/12 22:27:00;;;;;;;9.6;6.5;;;;;;;15.04;100;97304.94;;;;
2021/05/12 22:36:55;;;;;;;9.8;6.6;;;;;;;14.84;100;97289.94;;;;
2021/05/12 22:46:54;;;;;;;13.3;8.9;;;;;;;14.74;100;97283.22;;;;
2021/05/12 22:57:15;;;;;;;13.2;8.9;;;;;;;14.69;100;97283.53;;;;
2021/05/12 23:06:52;;;;;;;13.6;10.2;;;;;;;14.65;100;97285.4;;;;
2021/05/12 23:16:51;;;;;;;15.1;11.4;;;;;;;14.53;100;97280.2;;;;
2021/05/12 23:26:50;;;;;;;17.7;12.4;;;;;;;14.6;100;97264.03;;;;
2021/05/12 23:36:49;;;;;;;16;13.8;;;;;;;14.77;100;97260.8;;;;
2021/05/12 23:46:48;;;;;;;14;11.9;;;;;;;14.88;100;97242.73;;;;
2021/05/12 23:56:47;;;;;;;18.6;14.6;;;;;;;14.94;100;97240.47;;;;
